Flight Track Log - Related Links

Times and Time Zones

All times are in EDT time to prevent confusion due to time zone crossing. See the GJS3649 flight status page for this flight to view local times or setup timezone preferences in your user account.

Time Position Orientation Groundspeed Altitude Reporting Facility
EDT Latitude Longitude Course Direction KTS MPH feet Rate Location/Type
Thu 07:20:48 PM 41.9500 -72.7108 242° Southwest 163 188 1,200  Level Boston Center
Thu 07:21:51 PM 41.9372 -72.7833 257° West 181 208 3,300 2,049 Climbing Boston Center
Thu 07:22:51 PM 41.9306 -72.8753 264° West 218 251 5,400 2,550 Climbing Boston Center
Thu 07:23:51 PM 41.9261 -72.9731 267° West 248 285 8,400 3,000 Climbing Boston Center
Thu 07:24:00 PM 41.9006 -73.2252 265° West  Level FlightAware Approximate
Thu 07:24:51 PM 41.9236 -73.0678 268° West 267 307 11,400  Level Boston Center
Thu 07:25:00 PM 41.8741 -73.3519 236° Southwest  Level FlightAware Approximate
Thu 07:25:51 PM 41.9167 -73.1822 265° West 288 331 12,500  Level Boston Center
Thu 07:26:00 PM 41.8196 -73.4678 242° Southwest  Level FlightAware Approximate
Thu 07:26:51 PM 41.9011 -73.3075 261° West 334 384 15,000  Level Boston Center
Thu 07:27:51 PM 41.8564 -73.4128 240° Southwest 347 399 16,700 1,700 Climbing Boston Center
Thu 07:28:51 PM 41.7619 -73.4894 211° Southwest 361 415 18,400 1,860 Climbing Boston Center
Thu 07:30:42 PM 41.5661 -73.5522 193° South 407 468 22,000 1,953 Climbing New York Center
Thu 07:31:43 PM 41.4569 -73.5919 195° South 397 457 24,000 2,017 Climbing New York Center
Thu 07:32:41 PM 41.3519 -73.6261 194° South 397 457 26,000 1,780 Climbing New York Center
Thu 07:33:41 PM 41.2450 -73.6603 194° South 397 457 27,500 1,190 Climbing New York Center
Thu 07:34:42 PM 41.1656 -73.7506 221° Southwest 388 447 28,400 934 Climbing New York Center
Thu 07:35:43 PM 41.1225 -73.8892 248° West 376 433 29,400 793 Climbing New York Center
Thu 07:36:43 PM 41.0772 -74.0244 246° West 387 445 30,000  Climbing New York Center
Thu 07:37:43 PM 41.0356 -74.1739 250° West 418 481 29,400 -864 Descending New York Center
Thu 07:38:41 PM 40.9853 -74.3225 246° West 433 498 28,300 -706 Descending New York Center
Thu 07:39:42 PM 40.9411 -74.4739 249° West 447 514 28,000 -148 Descending New York Center
Thu 07:40:43 PM 40.8969 -74.6169 248° West 447 514 28,000  Level New York Center
Thu 07:41:41 PM 40.8506 -74.7569 246° West 436 502 28,000  Level New York Center
Thu 07:42:42 PM 40.7894 -74.8961 240° Southwest 430 495 28,000  Level New York Center
Thu 07:43:43 PM 40.7219 -75.0397 238° Southwest 447 514 28,000 -50 Level New York Center
Thu 07:44:41 PM 40.6542 -75.1806 238° Southwest 458 527 27,900 -814 Descending New York Center
Thu 07:45:41 PM 40.5906 -75.3214 239° Southwest 458 527 26,400 -1,488 Descending New York Center
Thu 07:46:42 PM 40.5247 -75.4589 238° Southwest 453 521 24,900 -1,475 Descending New York Center
Thu 07:47:43 PM 40.4589 -75.5908 237° Southwest 448 516 23,400 -1,462 Descending New York Center
Thu 07:48:41 PM 40.3994 -75.7231 239° Southwest 435 501 22,000 -1,412 Descending New York Center
Thu 07:49:42 PM 40.3356 -75.8519 237° Southwest 435 501 20,600 -984 Descending New York Center
Thu 07:50:43 PM 40.2694 -75.9831 237° Southwest 440 506 20,000 -595 Descending New York Center
Thu 07:51:43 PM 40.2239 -76.1156 246° West 425 489 19,400 -814 Descending New York Center
Thu 07:52:41 PM 40.1975 -76.2358 254° West 402 463 18,400 -1,017 Descending New York Center
Thu 07:53:41 PM 40.1550 -76.3872 250° West 397 457 17,400 -893 Descending New York Center
Thu 07:54:42 PM 40.1000 -76.4889 235° Southwest 386 444 16,600 -505 Descending New York Center
Thu 07:58:00 PM 39.9368 -76.6473 241° Southwest  Level FlightAware Approximate
Thu 07:59:02 PM 39.8167 -76.9500 241° Southwest 369 425 14,700  Level Potomac TRACON
Thu 08:00:02 PM 39.7667 -77.0667 241° Southwest 368 423 13,000 -1,600 Descending Potomac TRACON
Thu 08:01:02 PM 39.7167 -77.1667 237° Southwest 362 417 11,500 -1,500 Descending Potomac TRACON
Thu 08:02:02 PM 39.6667 -77.2667 237° Southwest 346 398 10,000 -850 Descending Potomac TRACON
Thu 08:03:02 PM 39.6000 -77.3333 218° Southwest 303 349 9,800 -650 Descending Potomac TRACON
Thu 08:04:02 PM 39.5167 -77.3500 189° South 302 348 8,700 -1,200 Descending Potomac TRACON
Thu 08:05:02 PM 39.4333 -77.3667 189° South 306 352 7,400 -1,304 Descending Potomac TRACON
Thu 08:05:57 PM 39.3500 -77.3667 180° South 306 352 6,200 -1,200 Descending Potomac TRACON
Thu 08:06:57 PM 39.2667 -77.3667 180° South 295 339 5,100 -992 Descending Potomac TRACON
Thu 08:08:04 PM 39.1833 -77.3667 180° South 289 333 4,100 -496 Descending Potomac TRACON
Thu 08:08:58 PM 39.1000 -77.3500 171° South 279 321 4,100 -421 Level Potomac TRACON
Thu 08:09:58 PM 39.0333 -77.3500 180° South 276 318 3,300 -476 Descending Potomac TRACON
Thu 08:11:04 PM 38.9500 -77.3667 189° South 272 313 3,100 -100 Descending Potomac TRACON
Thu 08:11:58 PM 38.8833 -77.3667 180° South 273 314 3,100  Level Potomac TRACON
Thu 08:13:04 PM 38.8167 -77.3667 180° South 207 238 3,100 -331 Level Potomac TRACON
Thu 08:14:05 PM 38.8000 -77.4167 247° West 178 205 2,400 -689 Descending Potomac TRACON

Login

Don't have an account? Register now (free) for customized features, flight alerts, and more!